Time,TemperatureF,DewpointF,PressureIn,WindDirection,WindDirectionDegrees,WindSpeedMPH,WindSpeedGustMPH,Humidity,HourlyPrecipIn,Conditions,Clouds,dailyrainin,SoftwareType,DateUTC
2013-10-07 00:03:00,37.8,36.0,29.91,NNE,25,0.0,0.0,91,0.00,,,0.00,weatherlink.com 1.10,2013-10-07 06:03:00,
2013-10-07 00:18:00,37.9,35.0,29.91,NNE,25,0.0,0.0,89,0.00,,,0.00,weatherlink.com 1.10,2013-10-07 06:18:00,
2013-10-07 00:33:00,37.0,34.0,29.91,NNE,25,0.0,0.0,90,0.00,,,0.00,weatherlink.com 1.10,2013-10-07 06:33:00,
2013-10-07 00:48:00,36.7,35.0,29.91,NNE,25,0.0,0.0,92,0.00,,,0.00,weatherlink.com 1.10,2013-10-07 06:48:00,
2013-10-07 01:03:00,35.9,34.0,29.91,NNE,25,0.0,0.0,92,0.00,,,0.00,weatherlink.com 1.10,2013-10-07 07:03:00,
2013-10-07 01:18:00,35.9,34.0,29.91,NNE,25,0.0,0.0,94,0.00,,,0.00,weatherlink.com 1.10,2013-10-07 07:18:00,
2013-10-07 01:33:00,35.2,33.0,29.91,NNE,25,0.0,0.0,92,0.00,,,0.00,weatherlink.com 1.10,2013-10-07 07:33:00,
2013-10-07 01:48:00,35.1,33.0,29.90,NNE,25,0.0,0.0,93,0.00,,,0.00,weatherlink.com 1.10,2013-10-07 07:48:00,
2013-10-07 02:03:00,34.2,32.0,29.90,NNE,25,0.0,0.0,92,0.00,,,0.00,weatherlink.com 1.10,2013-10-07 08:03:00,
2013-10-07 02:18:00,34.0,32.0,29.90,ENE,68,0.0,0.0,93,0.00,,,0.00,weatherlink.com 1.10,2013-10-07 08:18:00,
2013-10-07 02:33:00,34.2,33.0,29.89,ENE,68,0.0,2.0,94,0.00,,,0.00,weatherlink.com 1.10,2013-10-07 08:33:00,
2013-10-07 02:48:00,33.4,32.0,29.90,ENE,68,0.0,0.0,94,0.00,,,0.00,weatherlink.com 1.10,2013-10-07 08:48:00,
2013-10-07 03:03:00,33.4,32.0,29.89,ENE,68,0.0,1.0,95,0.00,,,0.00,weatherlink.com 1.10,2013-10-07 09:03:00,
2013-10-07 03:18:00,33.0,32.0,29.89,NW,312,0.0,2.0,94,0.00,,,0.00,weatherlink.com 1.10,2013-10-07 09:18:00,
2013-10-07 03:33:00,35.2,34.0,29.89,North,360,2.0,4.0,94,0.00,,,0.00,weatherlink.com 1.10,2013-10-07 09:33:00,
2013-10-07 03:49:00,36.9,34.0,29.88,North,360,5.0,6.0,88,0.00,,,0.00,weatherlink.com 1.10,2013-10-07 09:49:00,
2013-10-07 04:04:00,37.2,33.0,29.87,North,360,5.0,5.0,85,0.00,,,0.00,weatherlink.com 1.10,2013-10-07 10:04:00,
2013-10-07 04:19:00,38.2,34.0,29.87,NW,324,0.0,5.0,83,0.00,,,0.00,weatherlink.com 1.10,2013-10-07 10:19:00,
2013-10-07 04:34:00,37.0,33.0,29.87,North,5,3.0,4.0,85,0.00,,,0.00,weatherlink.com 1.10,2013-10-07 10:34:00,
2013-10-07 04:49:00,37.6,33.0,29.87,NNW,348,5.0,5.0,84,0.00,,,0.00,weatherlink.com 1.10,2013-10-07 10:49:00,
2013-10-07 05:04:00,37.9,33.0,29.86,NNE,32,4.0,4.0,82,0.00,,,0.00,weatherlink.com 1.10,2013-10-07 11:04:00,
2013-10-07 05:19:00,37.2,32.0,29.86,NW,312,0.0,4.0,80,0.00,,,0.00,weatherlink.com 1.10,2013-10-07 11:19:00,
2013-10-07 05:34:00,33.7,31.0,29.85,North,11,0.0,2.0,89,0.00,,,0.00,weatherlink.com 1.10,2013-10-07 11:34:00,
2013-10-07 05:49:00,32.5,30.0,29.85,North,11,0.0,1.0,89,0.00,,,0.00,weatherlink.com 1.10,2013-10-07 11:49:00,
2013-10-07 06:04:00,32.7,30.0,29.85,North,11,0.0,1.0,91,0.00,,,0.00,weatherlink.com 1.10,2013-10-07 12:04:00,
2013-10-07 06:19:00,33.4,32.0,29.85,NW,324,2.0,3.0,94,0.00,,,0.00,weatherlink.com 1.10,2013-10-07 12:19:00,
2013-10-07 06:34:00,34.7,32.0,29.85,NNE,13,0.0,2.0,88,0.00,,,0.00,weatherlink.com 1.10,2013-10-07 12:34:00,
2013-10-07 06:49:00,32.3,30.0,29.85,NNE,15,0.0,2.0,89,0.00,,,0.00,weatherlink.com 1.10,2013-10-07 12:49:00,
2013-10-07 07:04:00,32.0,30.0,29.84,NNE,15,0.0,0.0,91,0.00,,,0.00,weatherlink.com 1.10,2013-10-07 13:04:00,
2013-10-07 07:19:00,30.8,29.0,29.84,SE,139,1.0,3.0,92,0.00,,,0.00,weatherlink.com 1.10,2013-10-07 13:19:00,
2013-10-07 07:34:00,31.0,30.0,29.84,East,94,0.0,2.0,94,0.00,,,0.00,weatherlink.com 1.10,2013-10-07 13:34:00,
2013-10-07 07:49:00,30.9,29.0,29.84,East,94,0.0,0.0,94,0.00,,,0.00,weatherlink.com 1.10,2013-10-07 13:49:00,
2013-10-07 08:04:00,30.2,29.0,29.84,East,94,0.0,1.0,94,0.00,,,0.00,weatherlink.com 1.10,2013-10-07 14:04:00,
2013-10-07 08:19:00,30.6,29.0,29.84,East,94,0.0,0.0,95,0.00,,,0.00,weatherlink.com 1.10,2013-10-07 14:19:00,
2013-10-07 08:34:00,30.1,29.0,29.84,East,94,0.0,1.0,94,0.00,,,0.00,weatherlink.com 1.10,2013-10-07 14:34:00,
2013-10-07 08:49:00,30.8,30.0,29.84,East,94,1.0,2.0,95,0.00,,,0.00,weatherlink.com 1.10,2013-10-07 14:49:00,
2013-10-07 09:04:00,32.6,31.0,29.84,East,94,0.0,0.0,95,0.00,,,0.00,weatherlink.com 1.10,2013-10-07 15:04:00,
2013-10-07 09:19:00,35.4,34.0,29.84,NE,39,1.0,5.0,93,0.00,,,0.00,weatherlink.com 1.10,2013-10-07 15:19:00,
2013-10-07 09:34:00,37.2,34.0,29.84,North,5,0.0,3.0,88,0.00,,,0.00,weatherlink.com 1.10,2013-10-07 15:34:00,
2013-10-07 09:49:00,38.8,35.0,29.84,NNE,19,0.0,2.0,85,0.00,,,0.00,weatherlink.com 1.10,2013-10-07 15:49:00,
2013-10-07 10:04:00,40.3,35.0,29.83,NE,42,0.0,3.0,82,0.00,,,0.00,weatherlink.com 1.10,2013-10-07 16:04:00,
2013-10-07 10:19:00,41.4,36.0,29.83,NE,42,0.0,3.0,82,0.00,,,0.00,weatherlink.com 1.10,2013-10-07 16:19:00,
2013-10-07 10:35:00,43.1,36.0,29.83,NE,42,0.0,2.0,77,0.00,,,0.00,weatherlink.com 1.10,2013-10-07 16:35:00,
2013-10-07 10:50:00,45.4,37.0,29.82,NE,51,0.0,2.0,73,0.00,,,0.00,weatherlink.com 1.10,2013-10-07 16:50:00,
2013-10-07 11:05:00,47.3,38.0,29.81,SE,130,0.0,4.0,69,0.00,,,0.00,weatherlink.com 1.10,2013-10-07 17:05:00,
2013-10-07 11:20:00,48.7,37.0,29.80,ENE,57,2.0,4.0,65,0.00,,,0.00,weatherlink.com 1.10,2013-10-07 17:20:00,
2013-10-07 11:35:00,50.1,37.0,29.80,SE,135,2.0,3.0,62,0.00,,,0.00,weatherlink.com 1.10,2013-10-07 17:35:00,
2013-10-07 11:50:00,52.4,37.0,29.78,NW,321,2.0,3.0,57,0.00,,,0.00,weatherlink.com 1.10,2013-10-07 17:50:00,
2013-10-07 12:05:00,53.6,36.0,29.78,West,279,2.0,3.0,52,0.00,,,0.00,weatherlink.com 1.10,2013-10-07 18:05:00,
2013-10-07 12:21:00,55.2,36.0,29.77,NE,40,0.0,4.0,48,0.00,,,0.00,weatherlink.com 1.10,2013-10-07 18:21:00,
2013-10-07 12:35:00,57.2,36.0,29.76,South,169,2.0,4.0,45,0.00,,,0.00,weatherlink.com 1.10,2013-10-07 18:35:00,
2013-10-07 12:50:00,58.6,35.0,29.75,SSW,208,2.0,6.0,41,0.00,,,0.00,weatherlink.com 1.10,2013-10-07 18:50:00,
2013-10-07 13:05:00,59.5,36.0,29.75,East,98,2.0,4.0,41,0.00,,,0.00,weatherlink.com 1.10,2013-10-07 19:05:00,
2013-10-07 13:20:00,61.6,36.0,29.74,West,275,1.0,4.0,38,0.00,,,0.00,weatherlink.com 1.10,2013-10-07 19:20:00,
2013-10-07 13:35:00,62.3,34.0,29.72,SSW,192,2.0,5.0,35,0.00,,,0.00,weatherlink.com 1.10,2013-10-07 19:35:00,
2013-10-07 13:50:00,63.5,34.0,29.71,SW,224,2.0,6.0,33,0.00,,,0.00,weatherlink.com 1.10,2013-10-07 19:50:00,
2013-10-07 14:21:00,64.3,35.0,29.70,East,83,1.0,5.0,34,0.00,,,0.00,weatherlink.com 1.10,2013-10-07 20:21:00,
2013-10-07 14:51:00,65.9,36.0,29.68,East,97,1.0,3.0,33,0.00,,,0.00,weatherlink.com 1.10,2013-10-07 20:51:00,
2013-10-07 15:06:00,66.7,35.0,29.68,NW,308,2.0,4.0,31,0.00,,,0.00,weatherlink.com 1.10,2013-10-07 21:06:00,
2013-10-07 15:21:00,67.0,34.0,29.68,SSW,207,0.0,6.0,30,0.00,,,0.00,weatherlink.com 1.10,2013-10-07 21:21:00,
2013-10-07 15:36:00,67.7,33.0,29.68,WNW,290,2.0,6.0,28,0.00,,,0.00,weatherlink.com 1.10,2013-10-07 21:36:00,
2013-10-07 15:51:00,68.3,31.0,29.67,WNW,292,4.0,15.0,25,0.00,,,0.00,weatherlink.com 1.10,2013-10-07 21:51:00,
2013-10-07 16:06:00,67.8,32.0,29.67,NW,322,9.0,13.0,27,0.00,,,0.00,weatherlink.com 1.10,2013-10-07 22:06:00,
2013-10-07 16:21:00,68.7,32.0,29.67,West,277,5.0,11.0,26,0.00,,,0.00,weatherlink.com 1.10,2013-10-07 22:21:00,
2013-10-07 16:36:00,66.2,33.0,29.67,WNW,291,11.0,20.0,29,0.00,,,0.00,weatherlink.com 1.10,2013-10-07 22:36:00,
2013-10-07 16:51:00,64.2,31.0,29.67,WNW,295,7.0,19.0,29,0.00,,,0.00,weatherlink.com 1.10,2013-10-07 22:51:00,
2013-10-07 17:06:00,63.1,31.0,29.68,WNW,301,6.0,17.0,30,0.00,,,0.00,weatherlink.com 1.10,2013-10-07 23:06:00,
2013-10-07 17:36:00,61.2,30.0,29.68,NNW,328,6.0,18.0,31,0.00,,,0.00,weatherlink.com 1.10,2013-10-07 23:36:00,
2013-10-07 17:51:00,60.5,30.0,29.68,NNW,338,5.0,19.0,32,0.00,,,0.00,weatherlink.com 1.10,2013-10-07 23:51:00,
2013-10-07 18:06:00,60.1,31.0,29.68,NNW,348,11.0,18.0,34,0.00,,,0.00,weatherlink.com 1.10,2013-10-08 00:06:00,
2013-10-07 18:21:00,59.9,33.0,29.69,WSW,250,4.0,15.0,36,0.00,,,0.00,weatherlink.com 1.10,2013-10-08 00:21:00,
2013-10-07 18:36:00,59.5,32.0,29.69,NW,324,0.0,17.0,36,0.00,,,0.00,weatherlink.com 1.10,2013-10-08 00:36:00,
2013-10-07 18:51:00,59.1,31.0,29.70,NNE,15,10.0,11.0,34,0.00,,,0.00,weatherlink.com 1.10,2013-10-08 00:51:00,
2013-10-07 19:06:00,58.6,29.0,29.70,NNE,17,12.0,18.0,33,0.00,,,0.00,weatherlink.com 1.10,2013-10-08 01:06:00,
2013-10-07 19:21:00,58.6,29.0,29.70,NE,46,21.0,24.0,33,0.00,,,0.00,weatherlink.com 1.10,2013-10-08 01:21:00,
2013-10-07 19:36:00,58.5,29.0,29.71,NW,304,0.0,19.0,33,0.00,,,0.00,weatherlink.com 1.10,2013-10-08 01:36:00,
2013-10-07 19:51:00,58.0,30.0,29.72,North,5,6.0,16.0,35,0.00,,,0.00,weatherlink.com 1.10,2013-10-08 01:51:00,
2013-10-07 20:06:00,57.1,31.0,29.72,NNW,346,4.0,10.0,37,0.00,,,0.00,weatherlink.com 1.10,2013-10-08 02:06:00,
2013-10-07 20:21:00,56.4,31.0,29.74,WNW,283,10.0,13.0,38,0.00,,,0.00,weatherlink.com 1.10,2013-10-08 02:21:00,
2013-10-07 20:36:00,56.3,31.0,29.74,NNW,338,8.0,14.0,39,0.00,,,0.00,weatherlink.com 1.10,2013-10-08 02:36:00,
2013-10-07 20:51:00,55.5,33.0,29.74,WNW,296,4.0,14.0,42,0.00,,,0.00,weatherlink.com 1.10,2013-10-08 02:51:00,
2013-10-07 21:06:00,55.5,33.0,29.75,NW,319,3.0,14.0,43,0.00,,,0.00,weatherlink.com 1.10,2013-10-08 03:06:00,
2013-10-07 21:21:00,55.1,33.0,29.75,NNW,333,5.0,10.0,44,0.00,,,0.00,weatherlink.com 1.10,2013-10-08 03:21:00,
2013-10-07 21:36:00,54.6,35.0,29.75,NW,308,7.0,12.0,47,0.00,,,0.00,weatherlink.com 1.10,2013-10-08 03:36:00,
2013-10-07 21:51:00,54.2,35.0,29.76,NNW,336,10.0,15.0,48,0.00,,,0.00,weatherlink.com 1.10,2013-10-08 03:51:00,
2013-10-07 22:06:00,50.8,37.0,29.77,NNW,344,12.0,19.0,60,0.00,,,0.00,weatherlink.com 1.10,2013-10-08 04:06:00,
2013-10-07 22:21:00,48.5,39.0,29.78,NNW,333,15.0,20.0,69,0.00,,,0.00,weatherlink.com 1.10,2013-10-08 04:21:00,
2013-10-07 22:36:00,48.0,38.0,29.78,NNE,21,5.0,13.0,68,0.00,,,0.00,weatherlink.com 1.10,2013-10-08 04:36:00,
2013-10-07 22:51:00,49.8,35.0,29.78,East,98,3.0,16.0,57,0.00,,,0.00,weatherlink.com 1.10,2013-10-08 04:51:00,
2013-10-07 23:06:00,49.7,35.0,29.78,East,87,3.0,9.0,58,0.00,,,0.00,weatherlink.com 1.10,2013-10-08 05:06:00,
2013-10-07 23:21:00,50.1,35.0,29.78,NNW,333,6.0,10.0,56,0.00,,,0.00,weatherlink.com 1.10,2013-10-08 05:21:00,
2013-10-07 23:36:00,50.0,35.0,29.79,North,5,7.0,14.0,56,0.00,,,0.00,weatherlink.com 1.10,2013-10-08 05:36:00,
2013-10-07 23:51:00,49.7,34.0,29.79,NNE,14,8.0,14.0,56,0.00,,,0.00,weatherlink.com 1.10,2013-10-08 05:51:00,